Portada
METAR-TAF:

METAR-TAF

Aeroports :

Aeroport Internacional de Ras al-Khaimah

Ras al-Khaimah, Emirats Àrabs Units

latitud: 25-37N, longitud: 055-56E, altitud: 31 m

Observació

L'informe es va fer fa 20 minuts, a les 14:00 UTC
Vent 6 kt del Nord/Nord-Oest
Temperatura 29°C
Humitat 43%
Pressió 1011 hPa
Visibilitat 10 km o més
sense núvols per sota de 1500 mi sense presència de cumulonimbus.

METAR: OMRK 071400Z 33006KT CAVOK 29/15 Q1010 A2984

Hora: 18:20 (14:20 UTC)

Pronòstic

L'informe es va fer fa 3 hores i 22 minuts, a les 10:58 UTC
Pronòstic vàlid del 07 a les 12 UTC al 08 a les 18 UTC
Vent 10 kt del Nord-Oest
Visibilitat 10 km o més
sense núvols per sota de 1500 mi sense presència de cumulonimbus.
Evolucionant progressivament
l' 07 a les 15 UTC al 07 a les 17 UTC
Vent 2 kt amb direcció variable
Evolucionant progressivament
l' 08 a les 08 UTC al 08 a les 10 UTC
Vent 10 kt del Nord-Oest

TAF: OMRK 071058Z 0712/0818 31010KT CAVOK BECMG 0715/0717 VRB02KT BECMG 0808/0810 32010KT

Observacions i pronòstics meteorològics de més de 4000 aeroports (METAR i TAF).

Les estacions disponibles són els punts grocs i vermells al mapa.

Posi el ratolí al punt desitjat per veure el nom de l'estació.

Feu clic per veure les observacions i els pronòstics meteorològics.

Per canviar el mapa: feu clic els botons verds amb una creu de color negre per apropar; al botó verd amb un guió per allunyar la imatge; o en les fletxes verdes per a mapes adjacents.


METAR-TAF: